Time;durP1;ratioP1;P1;durP2;ratioP2;P2;SDS_P1;SDS_P2;PMS_P1;PMS_P2;Temp;Humidity;BMP_temperature;BMP_pressure;BME280_temperature;BME280_humidity;BME280_pressure;Samples;Min_cycle;Max_cycle;Signal;HPM_P1;HPM_P2
2023/09/14 00:00:51;;;;;;;1.35;0.68;;;;;;;;;;12841795;23;20028;-84
2023/09/14 00:05:54;;;;;;;1.17;0.70;;;;;;;;;;12840987;23;20028;-85
2023/09/14 00:10:59;;;;;;;2.75;0.43;;;;;;;;;;12842177;23;20017;-84
2023/09/14 00:16:04;;;;;;;0.90;0.60;;;;;;;;;;12813389;23;20055;-84
2023/09/14 00:21:07;;;;;;;0.40;0.40;;;;;;;;;;12815271;23;20779;-85
2023/09/14 00:26:11;;;;;;;2.58;0.50;;;;;;;;;;12812975;23;20027;-85
2023/09/14 00:31:19;;;;;;;0.77;0.60;;;;;;;;;;12813512;23;20052;-84
2023/09/14 00:36:22;;;;;;;0.80;0.60;;;;;;;;;;12812243;23;20028;-85
2023/09/14 00:41:26;;;;;;;0.77;0.38;;;;;;;;;;12855641;23;20028;-84
2023/09/14 00:46:30;;;;;;;0.88;0.57;;;;;;;;;;12811768;23;20090;-84
2023/09/14 00:51:34;;;;;;;3.60;0.65;;;;;;;;;;12812595;23;20059;-84
2023/09/14 00:56:38;;;;;;;2.65;0.65;;;;;;;;;;12810812;23;20095;-84
2023/09/14 01:01:43;;;;;;;0.47;0.40;;;;;;;;;;12811200;23;20544;-84
2023/09/14 01:06:46;;;;;;;0.40;0.40;;;;;;;;;;12811465;23;20025;-84
2023/09/14 01:11:51;;;;;;;1.05;0.50;;;;;;;;;;12813759;23;20035;-83
2023/09/14 01:17:03;;;;;;;0.80;0.47;;;;;;;;;;12815047;23;20497;-85
2023/09/14 01:22:26;;;;;;;1.02;0.50;;;;;;;;;;12816213;23;20083;-84
2023/09/14 01:27:31;;;;;;;1.45;0.60;;;;;;;;;;12813689;23;20028;-86
2023/09/14 01:32:35;;;;;;;3.13;0.73;;;;;;;;;;12814096;23;20063;-84
2023/09/14 01:37:40;;;;;;;0.88;0.55;;;;;;;;;;12814127;23;20024;-84
2023/09/14 01:42:44;;;;;;;0.50;0.40;;;;;;;;;;12772687;23;20031;-75
2023/09/14 01:47:53;;;;;;;1.13;0.55;;;;;;;;;;12842701;23;20566;-75
2023/09/14 01:52:57;;;;;;;0.88;0.52;;;;;;;;;;12834130;23;20067;-75
2023/09/14 01:58:02;;;;;;;1.08;0.60;;;;;;;;;;12829170;23;20028;-75
2023/09/14 02:03:05;;;;;;;1.45;0.50;;;;;;;;;;12833046;23;20083;-76
2023/09/14 02:08:09;;;;;;;1.13;0.50;;;;;;;;;;12834586;23;20028;-75
2023/09/14 02:13:14;;;;;;;0.38;0.32;;;;;;;;;;12836858;23;20360;-75
2023/09/14 02:18:17;;;;;;;0.52;0.40;;;;;;;;;;12839276;23;20024;-75
2023/09/14 02:23:27;;;;;;;0.68;0.35;;;;;;;;;;12842335;23;20056;-75
2023/09/14 02:28:44;;;;;;;0.52;0.43;;;;;;;;;;12826197;23;20071;-76
2023/09/14 02:33:58;;;;;;;1.83;0.50;;;;;;;;;;12872993;23;20031;-76
2023/09/14 02:39:04;;;;;;;;;;;;;;;;;;12842706;23;20031;-75
2023/09/14 02:44:10;;;;;;;0.50;0.30;;;;;;;;;;12828845;23;19936;-75
2023/09/14 02:49:14;;;;;;;0.70;0.47;;;;;;;;;;12860318;23;20099;-75
2023/09/14 02:54:17;;;;;;;0.90;0.40;;;;;;;;;;12833130;23;20024;-75
2023/09/14 02:59:22;;;;;;;0.60;0.40;;;;;;;;;;12833087;23;20130;-75
2023/09/14 03:04:27;;;;;;;1.10;0.43;;;;;;;;;;12834485;23;20024;-75
2023/09/14 03:09:30;;;;;;;0.60;0.50;;;;;;;;;;12861494;23;20079;-75
2023/09/14 03:14:36;;;;;;;1.17;0.38;;;;;;;;;;12857396;23;20021;-75
2023/09/14 03:19:42;;;;;;;0.95;0.60;;;;;;;;;;12829824;23;20021;-75
2023/09/14 03:24:46;;;;;;;1.10;0.60;;;;;;;;;;12859448;23;20048;-75
2023/09/14 03:29:51;;;;;;;0.32;0.32;;;;;;;;;;12831192;23;20025;-75
2023/09/14 03:34:54;;;;;;;1.02;0.60;;;;;;;;;;12829976;23;20490;-75
2023/09/14 03:39:59;;;;;;;0.45;0.45;;;;;;;;;;12828283;23;20068;-75
2023/09/14 03:45:08;;;;;;;1.00;0.50;;;;;;;;;;12829573;23;20082;-75
2023/09/14 03:50:12;;;;;;;0.63;0.40;;;;;;;;;;12857007;23;20035;-75
2023/09/14 03:55:15;;;;;;;2.30;0.50;;;;;;;;;;12856684;23;20463;-75
2023/09/14 04:00:20;;;;;;;1.75;0.40;;;;;;;;;;12875914;23;20016;-75
2023/09/14 04:05:24;;;;;;;1.43;0.50;;;;;;;;;;12875639;23;20532;-75
2023/09/14 04:10:27;;;;;;;0.40;0.40;;;;;;;;;;12831822;23;20025;-75
2023/09/14 04:15:33;;;;;;;0.85;0.47;;;;;;;;;;12832656;23;20021;-75
2023/09/14 04:20:36;;;;;;;0.60;0.40;;;;;;;;;;12878991;23;20046;-75
2023/09/14 04:25:44;;;;;;;0.60;0.40;;;;;;;;;;12833901;23;20027;-75
2023/09/14 04:30:52;;;;;;;0.82;0.60;;;;;;;;;;12833225;23;20024;-75
2023/09/14 04:35:59;;;;;;;1.00;0.65;;;;;;;;;;12831125;23;20032;-75
2023/09/14 04:41:05;;;;;;;1.15;0.70;;;;;;;;;;12831543;23;20025;-76
2023/09/14 04:46:10;;;;;;;0.80;0.70;;;;;;;;;;12826156;23;20112;-76
2023/09/14 04:51:14;;;;;;;1.40;0.60;;;;;;;;;;12827328;23;20374;-76
2023/09/14 04:56:18;;;;;;;1.85;0.82;;;;;;;;;;12829832;23;20043;-75
2023/09/14 05:01:23;;;;;;;0.60;0.50;;;;;;;;;;12830695;23;20110;-75
2023/09/14 05:06:27;;;;;;;0.50;0.50;;;;;;;;;;12829735;23;20519;-75
2023/09/14 05:11:31;;;;;;;0.50;0.50;;;;;;;;;;12830763;23;20033;-75
2023/09/14 05:16:36;;;;;;;1.35;0.55;;;;;;;;;;12833716;23;20028;-75
2023/09/14 05:21:40;;;;;;;1.33;0.80;;;;;;;;;;12834064;23;20076;-75
2023/09/14 05:26:43;;;;;;;0.82;0.60;;;;;;;;;;12833982;23;20100;-75
2023/09/14 05:31:48;;;;;;;0.60;0.50;;;;;;;;;;12833640;23;20028;-75
2023/09/14 05:36:53;;;;;;;0.40;0.40;;;;;;;;;;12832356;23;20020;-75
2023/09/14 05:41:57;;;;;;;1.73;0.70;;;;;;;;;;12833137;23;20029;-75
2023/09/14 05:47:03;;;;;;;2.20;0.70;;;;;;;;;;12834272;23;20020;-75
2023/09/14 05:52:06;;;;;;;1.27;0.80;;;;;;;;;;12873294;23;20707;-75
2023/09/14 05:57:10;;;;;;;0.77;0.65;;;;;;;;;;12858481;23;20086;-75
2023/09/14 06:02:16;;;;;;;3.00;0.80;;;;;;;;;;12833115;23;20046;-75
2023/09/14 06:07:25;;;;;;;0.60;0.60;;;;;;;;;;12869714;23;20400;-75
2023/09/14 06:12:29;;;;;;;0.88;0.70;;;;;;;;;;12832524;23;20028;-75
2023/09/14 06:17:35;;;;;;;0.43;0.43;;;;;;;;;;12858099;23;20104;-76
2023/09/14 06:22:39;;;;;;;0.90;0.70;;;;;;;;;;12869290;23;20025;-75
2023/09/14 06:27:44;;;;;;;0.85;0.70;;;;;;;;;;12830790;23;20021;-76
2023/09/14 06:32:48;;;;;;;0.52;0.52;;;;;;;;;;12831821;23;20028;-75
2023/09/14 06:37:52;;;;;;;1.40;0.43;;;;;;;;;;12831254;23;20051;-76
2023/09/14 06:42:55;;;;;;;0.60;0.55;;;;;;;;;;12831165;23;20104;-75
2023/09/14 06:48:00;;;;;;;0.30;0.30;;;;;;;;;;12873519;23;20021;-76
2023/09/14 06:53:04;;;;;;;0.90;0.60;;;;;;;;;;12869011;23;20091;-76
2023/09/14 06:58:08;;;;;;;2.45;0.50;;;;;;;;;;12868071;23;20068;-75
2023/09/14 07:03:13;;;;;;;0.80;0.52;;;;;;;;;;12867485;23;20084;-76
2023/09/14 07:08:17;;;;;;;2.97;1.80;;;;;;;;;;12866774;23;20341;-75
2023/09/14 07:13:20;;;;;;;2.85;2.22;;;;;;;;;;12858145;23;20029;-76
2023/09/14 07:18:29;;;;;;;3.38;2.17;;;;;;;;;;12851059;23;20024;-76
2023/09/14 07:23:33;;;;;;;6.72;4.07;;;;;;;;;;12862978;23;20016;-76
2023/09/14 07:28:37;;;;;;;11.95;5.90;;;;;;;;;;12862213;23;20024;-76
2023/09/14 07:33:45;;;;;;;8.98;5.30;;;;;;;;;;12828622;23;20025;-75
2023/09/14 07:38:48;;;;;;;10.00;6.05;;;;;;;;;;12860444;23;20020;-76
2023/09/14 07:43:53;;;;;;;6.80;5.45;;;;;;;;;;12854162;23;20029;-75
2023/09/14 07:48:58;;;;;;;4.53;3.53;;;;;;;;;;12855886;23;20355;-75
2023/09/14 07:54:01;;;;;;;6.68;4.38;;;;;;;;;;12829588;23;20043;-75
2023/09/14 07:59:05;;;;;;;7.72;5.05;;;;;;;;;;12860398;23;20016;-75
2023/09/14 08:04:09;;;;;;;11.55;7.55;;;;;;;;;;12829375;23;20100;-75
2023/09/14 08:09:13;;;;;;;8.25;5.75;;;;;;;;;;12858385;23;20025;-75
2023/09/14 08:14:16;;;;;;;5.68;4.53;;;;;;;;;;12829073;23;20598;-75
2023/09/14 08:19:21;;;;;;;6.80;5.05;;;;;;;;;;12855193;23;20031;-76
2023/09/14 08:24:25;;;;;;;4.60;4.20;;;;;;;;;;12857828;23;20031;-75
2023/09/14 08:29:30;;;;;;;8.85;3.97;;;;;;;;;;12857058;23;20032;-76
2023/09/14 08:34:36;;;;;;;1.88;1.70;;;;;;;;;;12855553;23;20048;-76
2023/09/14 08:39:40;;;;;;;3.28;1.58;;;;;;;;;;12857260;23;20047;-76
2023/09/14 08:44:44;;;;;;;1.27;0.88;;;;;;;;;;12856345;23;20025;-75
2023/09/14 08:49:51;;;;;;;2.05;1.27;;;;;;;;;;12824638;23;20035;-75
2023/09/14 08:54:57;;;;;;;2.83;1.35;;;;;;;;;;12855275;23;20048;-76
2023/09/14 09:00:08;;;;;;;2.22;1.60;;;;;;;;;;12853596;23;20048;-75
2023/09/14 09:05:14;;;;;;;1.80;1.30;;;;;;;;;;12827601;23;20363;-76
2023/09/14 09:10:22;;;;;;;2.15;1.35;;;;;;;;;;12854088;23;20028;-77
2023/09/14 09:15:26;;;;;;;0.82;0.60;;;;;;;;;;12854764;23;20455;-76
2023/09/14 09:20:34;;;;;;;1.63;0.80;;;;;;;;;;12855071;23;20016;-76
2023/09/14 09:25:47;;;;;;;1.27;0.85;;;;;;;;;;12873353;23;20123;-76
2023/09/14 09:30:55;;;;;;;1.02;0.75;;;;;;;;;;12829098;23;20052;-76
2023/09/14 09:36:01;;;;;;;0.80;0.57;;;;;;;;;;12871415;23;20537;-76
2023/09/14 09:41:10;;;;;;;1.15;0.70;;;;;;;;;;12872612;23;20020;-75
2023/09/14 09:46:17;;;;;;;1.05;0.50;;;;;;;;;;12872103;23;20585;-76
2023/09/14 09:51:24;;;;;;;0.88;0.70;;;;;;;;;;12828427;23;20535;-75
2023/09/14 09:56:28;;;;;;;1.35;0.47;;;;;;;;;;12869120;23;20028;-75
2023/09/14 10:01:32;;;;;;;1.02;0.50;;;;;;;;;;12871968;23;20056;-75
2023/09/14 10:06:40;;;;;;;3.20;0.60;;;;;;;;;;12870925;23;20032;-75
2023/09/14 10:11:48;;;;;;;2.60;0.80;;;;;;;;;;12857771;23;20416;-75
2023/09/14 10:16:53;;;;;;;0.95;0.60;;;;;;;;;;12871881;23;20024;-76
2023/09/14 10:21:58;;;;;;;0.98;0.60;;;;;;;;;;12829481;23;20059;-75
2023/09/14 10:27:02;;;;;;;1.05;0.57;;;;;;;;;;12870560;23;20035;-76
2023/09/14 10:32:07;;;;;;;0.85;0.30;;;;;;;;;;12856919;23;20021;-75
2023/09/14 10:37:12;;;;;;;1.27;0.60;;;;;;;;;;12870077;23;20103;-76
2023/09/14 10:42:16;;;;;;;1.40;0.50;;;;;;;;;;12855994;23;20028;-75
2023/09/14 10:47:23;;;;;;;0.77;0.40;;;;;;;;;;12853659;23;20029;-75
2023/09/14 10:52:30;;;;;;;0.88;0.55;;;;;;;;;;12864178;23;20025;-75
2023/09/14 10:57:35;;;;;;;1.40;0.68;;;;;;;;;;12863846;23;20020;-75
2023/09/14 11:02:58;;;;;;;2.75;0.82;;;;;;;;;;12855755;23;20024;-75
2023/09/14 11:08:06;;;;;;;1.00;0.65;;;;;;;;;;12863371;23;20016;-75
2023/09/14 11:13:28;;;;;;;0.70;0.68;;;;;;;;;;12863467;23;20021;-75
2023/09/14 11:18:36;;;;;;;1.92;0.85;;;;;;;;;;12861542;23;20095;-76
2023/09/14 11:23:43;;;;;;;1.20;0.60;;;;;;;;;;12862725;23;20028;-75
2023/09/14 11:28:47;;;;;;;1.33;0.57;;;;;;;;;;12861319;23;20091;-75
2023/09/14 11:33:53;;;;;;;;;;;;;;;;;;12856002;23;20029;-75
2023/09/14 11:38:59;;;;;;;0.70;0.65;;;;;;;;;;12854012;23;19992;-74
2023/09/14 11:44:05;;;;;;;1.52;0.50;;;;;;;;;;12858379;23;20055;-75
2023/09/14 11:49:31;;;;;;;1.38;0.77;;;;;;;;;;12856867;23;20017;-75
2023/09/14 11:54:36;;;;;;;0.65;0.52;;;;;;;;;;12857630;23;20020;-75
2023/09/14 11:59:39;;;;;;;0.77;0.60;;;;;;;;;;12854817;23;20506;-75
2023/09/14 12:04:43;;;;;;;1.65;0.60;;;;;;;;;;12852350;23;20029;-75
2023/09/14 12:09:48;;;;;;;1.23;0.70;;;;;;;;;;12854864;23;20028;-75
2023/09/14 12:14:52;;;;;;;1.17;0.80;;;;;;;;;;12853366;23;20032;-75
2023/09/14 12:19:59;;;;;;;1.42;0.70;;;;;;;;;;12853202;23;20017;-75
2023/09/14 12:25:05;;;;;;;0.50;0.40;;;;;;;;;;12825657;23;20443;-75
2023/09/14 12:30:12;;;;;;;2.25;0.40;;;;;;;;;;12852508;23;20024;-75
2023/09/14 12:35:17;;;;;;;0.88;0.40;;;;;;;;;;12851988;23;20087;-76
2023/09/14 12:40:22;;;;;;;2.47;1.07;;;;;;;;;;12871804;23;20924;-75
2023/09/14 12:45:25;;;;;;;2.65;1.00;;;;;;;;;;12872180;23;20094;-75
2023/09/14 12:50:29;;;;;;;0.73;0.47;;;;;;;;;;12871201;23;20091;-75
2023/09/14 12:55:39;;;;;;;0.77;0.40;;;;;;;;;;12870392;23;20079;-75
2023/09/14 13:00:46;;;;;;;0.60;0.50;;;;;;;;;;12870554;23;20057;-75
2023/09/14 13:05:54;;;;;;;1.08;0.55;;;;;;;;;;12869874;23;20028;-75
2023/09/14 13:10:59;;;;;;;0.68;0.43;;;;;;;;;;12869850;23;20016;-75
2023/09/14 13:16:02;;;;;;;0.85;0.50;;;;;;;;;;12869508;23;20028;-75
2023/09/14 13:21:07;;;;;;;3.40;1.17;;;;;;;;;;12869844;23;20552;-75
2023/09/14 13:26:11;;;;;;;1.00;0.70;;;;;;;;;;12869384;23;20083;-75
2023/09/14 13:31:15;;;;;;;1.07;0.63;;;;;;;;;;12869279;23;20486;-75
2023/09/14 13:36:18;;;;;;;0.75;0.45;;;;;;;;;;12872053;23;20024;-75
2023/09/14 13:41:23;;;;;;;1.00;0.60;;;;;;;;;;12871617;23;20036;-74
2023/09/14 13:46:27;;;;;;;0.60;0.45;;;;;;;;;;12829141;23;20081;-75
2023/09/14 13:51:30;;;;;;;0.98;0.68;;;;;;;;;;12870614;23;20032;-75
2023/09/14 13:56:35;;;;;;;1.10;0.50;;;;;;;;;;12871355;23;20028;-75
2023/09/14 14:01:38;;;;;;;1.25;0.47;;;;;;;;;;12871189;23;20024;-75
2023/09/14 14:06:44;;;;;;;1.17;0.50;;;;;;;;;;12869231;23;20024;-75
2023/09/14 14:11:49;;;;;;;1.40;0.60;;;;;;;;;;12869035;23;20260;-75
2023/09/14 14:16:53;;;;;;;0.97;0.53;;;;;;;;;;12867608;23;20024;-75
2023/09/14 14:21:56;;;;;;;0.77;0.50;;;;;;;;;;12869477;23;20017;-74
2023/09/14 14:27:01;;;;;;;0.90;0.60;;;;;;;;;;12868045;23;20035;-75
2023/09/14 14:32:05;;;;;;;0.50;0.33;;;;;;;;;;12868365;23;20028;-75
2023/09/14 14:37:08;;;;;;;0.65;0.50;;;;;;;;;;12854290;23;20566;-75
2023/09/14 14:42:13;;;;;;;0.80;0.70;;;;;;;;;;12867143;23;20463;-74
2023/09/14 14:47:18;;;;;;;0.90;0.60;;;;;;;;;;12867362;23;20035;-75
2023/09/14 14:52:22;;;;;;;0.87;0.50;;;;;;;;;;12826777;23;20693;-75
2023/09/14 14:57:27;;;;;;;1.50;0.45;;;;;;;;;;12826662;23;20029;-75
2023/09/14 15:02:31;;;;;;;1.27;0.60;;;;;;;;;;12821734;23;20047;-74
2023/09/14 15:07:34;;;;;;;0.63;0.40;;;;;;;;;;12861936;23;20028;-75
2023/09/14 15:12:39;;;;;;;0.88;0.70;;;;;;;;;;12853398;23;20080;-74
2023/09/14 15:17:42;;;;;;;3.42;0.85;;;;;;;;;;12862612;23;20301;-74
2023/09/14 15:22:47;;;;;;;0.73;0.52;;;;;;;;;;12828446;23;20025;-74
2023/09/14 15:27:52;;;;;;;2.17;0.50;;;;;;;;;;12863157;23;20028;-74
2023/09/14 15:32:55;;;;;;;0.52;0.40;;;;;;;;;;12864313;23;20024;-75
2023/09/14 15:37:58;;;;;;;1.15;0.60;;;;;;;;;;12862560;23;20028;-74
2023/09/14 15:43:04;;;;;;;0.95;0.47;;;;;;;;;;12852827;23;20028;-74
2023/09/14 15:48:07;;;;;;;0.30;0.30;;;;;;;;;;12862012;23;20031;-74
2023/09/14 15:53:11;;;;;;;0.60;0.45;;;;;;;;;;12861978;23;20021;-75
2023/09/14 15:58:16;;;;;;;0.80;0.45;;;;;;;;;;12861208;23;20036;-74
2023/09/14 16:03:21;;;;;;;2.97;0.50;;;;;;;;;;12861452;23;20571;-74
2023/09/14 16:08:25;;;;;;;0.57;0.40;;;;;;;;;;12857519;23;20031;-74
2023/09/14 16:13:30;;;;;;;0.88;0.50;;;;;;;;;;12857675;23;20025;-74
2023/09/14 16:18:33;;;;;;;1.17;0.70;;;;;;;;;;12850168;23;20028;-74
2023/09/14 16:23:37;;;;;;;1.50;0.77;;;;;;;;;;12858663;23;20028;-74
2023/09/14 16:28:43;;;;;;;1.25;0.50;;;;;;;;;;12826078;23;20020;-74
2023/09/14 16:33:47;;;;;;;2.05;0.68;;;;;;;;;;12859230;23;20036;-74
2023/09/14 16:38:50;;;;;;;1.48;0.73;;;;;;;;;;12857929;23;20048;-74
2023/09/14 16:43:55;;;;;;;0.50;0.50;;;;;;;;;;12857858;23;20107;-74
2023/09/14 16:49:21;;;;;;;0.80;0.50;;;;;;;;;;12856487;23;20052;-74
2023/09/14 16:54:24;;;;;;;;;;;;;;;;;;12855232;23;20407;-74
2023/09/14 16:59:29;;;;;;;1.08;0.60;;;;;;;;;;12853614;23;19967;-74
2023/09/14 17:04:33;;;;;;;0.43;0.30;;;;;;;;;;12854015;23;20029;-74
2023/09/14 17:09:36;;;;;;;0.80;0.50;;;;;;;;;;12855828;23;20475;-74
2023/09/14 17:14:42;;;;;;;1.75;0.52;;;;;;;;;;12849653;23;20333;-74
2023/09/14 17:19:45;;;;;;;1.50;0.60;;;;;;;;;;12856142;23;20028;-74
2023/09/14 17:24:49;;;;;;;1.08;0.60;;;;;;;;;;12824551;23;20020;-74
2023/09/14 17:29:58;;;;;;;1.13;0.63;;;;;;;;;;12853617;23;20043;-74
2023/09/14 17:35:05;;;;;;;1.13;0.70;;;;;;;;;;12851936;23;20075;-74
2023/09/14 17:40:09;;;;;;;4.97;0.70;;;;;;;;;;12827685;23;20029;-74
2023/09/14 17:45:16;;;;;;;1.05;0.52;;;;;;;;;;12823841;23;20019;-75
2023/09/14 17:50:19;;;;;;;2.47;0.68;;;;;;;;;;12874752;23;20021;-74
2023/09/14 17:55:23;;;;;;;0.65;0.52;;;;;;;;;;12851289;23;20031;-74
2023/09/14 18:00:29;;;;;;;0.70;0.50;;;;;;;;;;12855133;23;20036;-74
2023/09/14 18:05:33;;;;;;;0.63;0.50;;;;;;;;;;12870202;23;20083;-74
2023/09/14 18:10:37;;;;;;;1.05;0.68;;;;;;;;;;12873216;23;20020;-74
2023/09/14 18:15:45;;;;;;;2.80;0.77;;;;;;;;;;12819354;23;20032;-76
2023/09/14 18:20:51;;;;;;;1.75;0.80;;;;;;;;;;12827125;23;20024;-75
2023/09/14 18:25:56;;;;;;;0.45;0.45;;;;;;;;;;12868368;23;20028;-75
2023/09/14 18:31:03;;;;;;;1.37;0.70;;;;;;;;;;12870814;23;20028;-76
2023/09/14 18:36:08;;;;;;;1.65;0.95;;;;;;;;;;12820588;23;20020;-76
2023/09/14 18:41:13;;;;;;;2.17;0.80;;;;;;;;;;12869245;23;20029;-76
2023/09/14 18:46:21;;;;;;;1.00;0.70;;;;;;;;;;12866564;23;20043;-75
2023/09/14 18:51:26;;;;;;;1.92;0.80;;;;;;;;;;12852274;23;20737;-75
2023/09/14 18:56:30;;;;;;;1.90;1.13;;;;;;;;;;12823116;23;20025;-75
2023/09/14 19:01:39;;;;;;;2.80;1.10;;;;;;;;;;12825945;23;20820;-76
2023/09/14 19:06:42;;;;;;;;;;;;;;;;;;12864902;23;20028;-75
2023/09/14 19:11:46;;;;;;;0.80;0.50;;;;;;;;;;12852784;23;20336;-75
2023/09/14 19:16:51;;;;;;;2.97;0.65;;;;;;;;;;12863815;23;20648;-75
2023/09/14 19:21:55;;;;;;;3.63;0.63;;;;;;;;;;12866520;23;20024;-76
2023/09/14 19:26:58;;;;;;;1.80;0.68;;;;;;;;;;12862915;23;20036;-75
2023/09/14 19:32:03;;;;;;;2.42;0.93;;;;;;;;;;12865805;23;20021;-75
2023/09/14 19:37:09;;;;;;;0.90;0.60;;;;;;;;;;12823091;23;20416;-76
2023/09/14 19:42:12;;;;;;;1.05;0.75;;;;;;;;;;12866028;23;20020;-76
2023/09/14 19:47:17;;;;;;;1.13;0.70;;;;;;;;;;12861733;23;20031;-75
2023/09/14 19:52:20;;;;;;;2.15;0.85;;;;;;;;;;12864407;23;20021;-75
2023/09/14 19:57:26;;;;;;;1.02;0.77;;;;;;;;;;12863044;23;20024;-75
2023/09/14 20:02:30;;;;;;;3.75;1.20;;;;;;;;;;12864334;23;20628;-76
2023/09/14 20:07:35;;;;;;;0.82;0.77;;;;;;;;;;12849439;23;20024;-75
2023/09/14 20:12:38;;;;;;;1.60;0.85;;;;;;;;;;12824451;23;20353;-75
2023/09/14 20:17:43;;;;;;;1.00;0.68;;;;;;;;;;12821516;23;20103;-75
2023/09/14 20:22:47;;;;;;;1.40;0.80;;;;;;;;;;12862567;23;20403;-75
2023/09/14 20:27:50;;;;;;;0.70;0.70;;;;;;;;;;12858619;23;20352;-75
2023/09/14 20:32:56;;;;;;;2.08;0.90;;;;;;;;;;12860006;23;20025;-76
2023/09/14 20:38:00;;;;;;;1.53;0.70;;;;;;;;;;12857370;23;20104;-76
2023/09/14 20:43:04;;;;;;;1.02;0.75;;;;;;;;;;12849431;23;20318;-75
2023/09/14 20:48:12;;;;;;;1.48;0.73;;;;;;;;;;12860276;23;20029;-75
2023/09/14 20:53:15;;;;;;;1.58;0.80;;;;;;;;;;12822648;23;20032;-75
2023/09/14 20:58:21;;;;;;;1.63;0.98;;;;;;;;;;12857289;23;20349;-75
2023/09/14 21:03:26;;;;;;;1.43;0.80;;;;;;;;;;12856560;23;20040;-75
2023/09/14 21:08:29;;;;;;;2.33;0.73;;;;;;;;;;12855249;23;20035;-76
2023/09/14 21:13:33;;;;;;;1.52;0.85;;;;;;;;;;12860080;23;20079;-75
2023/09/14 21:18:38;;;;;;;0.95;0.70;;;;;;;;;;12852119;23;20478;-75
2023/09/14 21:23:41;;;;;;;2.20;0.70;;;;;;;;;;12859289;23;20025;-75
2023/09/14 21:28:48;;;;;;;1.08;0.90;;;;;;;;;;12857018;23;20035;-75
2023/09/14 21:33:53;;;;;;;1.10;0.77;;;;;;;;;;12858816;23;20024;-76
2023/09/14 21:38:57;;;;;;;1.92;0.80;;;;;;;;;;12825436;23;20020;-76
2023/09/14 21:44:00;;;;;;;2.53;1.00;;;;;;;;;;12824893;23;20021;-76
2023/09/14 21:49:07;;;;;;;2.05;0.93;;;;;;;;;;12855070;23;20113;-76
2023/09/14 21:54:11;;;;;;;1.35;0.70;;;;;;;;;;12827035;23;20024;-76
2023/09/14 21:59:14;;;;;;;1.05;0.70;;;;;;;;;;12859657;23;20036;-76
2023/09/14 22:04:19;;;;;;;1.63;0.77;;;;;;;;;;12859261;23;20028;-76
2023/09/14 22:09:23;;;;;;;3.03;0.80;;;;;;;;;;12830122;23;20025;-75
2023/09/14 22:14:27;;;;;;;0.88;0.73;;;;;;;;;;12853853;23;20016;-76
2023/09/14 22:19:31;;;;;;;1.20;0.70;;;;;;;;;;12858590;23;20039;-76
2023/09/14 22:24:35;;;;;;;1.58;0.70;;;;;;;;;;12855927;23;20075;-76
2023/09/14 22:29:38;;;;;;;3.60;1.05;;;;;;;;;;12856999;23;20024;-75
2023/09/14 22:34:43;;;;;;;1.45;0.90;;;;;;;;;;12856213;23;20024;-75
2023/09/14 22:39:46;;;;;;;0.95;0.68;;;;;;;;;;12858422;23;20028;-76
2023/09/14 22:44:50;;;;;;;0.73;0.60;;;;;;;;;;12857503;23;20470;-76
2023/09/14 22:49:55;;;;;;;1.38;0.77;;;;;;;;;;12855923;23;20031;-76
2023/09/14 22:54:59;;;;;;;0.63;0.57;;;;;;;;;;12854785;23;20385;-76
2023/09/14 23:00:08;;;;;;;1.27;0.95;;;;;;;;;;12853017;23;20047;-76
2023/09/14 23:05:13;;;;;;;2.22;0.70;;;;;;;;;;12853828;23;20538;-76
2023/09/14 23:10:18;;;;;;;0.87;0.60;;;;;;;;;;12827395;23;20021;-76
2023/09/14 23:15:22;;;;;;;1.15;0.70;;;;;;;;;;12873635;23;20365;-76
2023/09/14 23:20:27;;;;;;;1.00;0.60;;;;;;;;;;12828673;23;20025;-76
2023/09/14 23:25:32;;;;;;;0.67;0.60;;;;;;;;;;12874487;23;20079;-76
2023/09/14 23:30:36;;;;;;;1.35;0.70;;;;;;;;;;12873827;23;20020;-76
2023/09/14 23:35:40;;;;;;;1.65;0.60;;;;;;;;;;12872695;23;20035;-76
2023/09/14 23:40:44;;;;;;;2.05;0.75;;;;;;;;;;12853804;23;20032;-76
2023/09/14 23:45:48;;;;;;;1.05;0.65;;;;;;;;;;12852101;23;20025;-76
2023/09/14 23:50:53;;;;;;;0.95;0.80;;;;;;;;;;12871488;23;20103;-76
2023/09/14 23:55:57;;;;;;;1.38;0.90;;;;;;;;;;12870575;23;20396;-76
